09:56
Airports
History
Links
Donate
Help keep this website running!
PayPal
Bitcoin
This page is community maintained. The information is intended for PC simulator navigation or reference.
Always use approved charts for navigation.
SNYW
Antonio Guerreiro
Antonio Guerreiro (SNYW)
Guimarães, Maranhão, Brazil (65255)
4
Lat/Lng:2° 6' 34" S / 44° 39' 4" W
-2.109444 / -44.651111
Elevation:245'ft / 75mMSL
ID / ICAO:SNYW
Runways:1
Longest:05-23
Gravel 805m / 2,640ft
Nearby Weather10:00 GMT 2017-09-22
Nearby weather at SBSL, Marechal Cunha Machado located 43.7 nautical miles from SNYW
Altimeter: 29.91
Visibility: 6.2 statute miles
Wind: 12 knots (from 070°)
Temp: 27°c / 81°f
Humidity: 78.8%

METAR: SBSL 221000Z 07012KT 9999 SCT017 SCT100 27/23 Q1013

(Powered by phpweather)
Runway 05 / 23
Dimensions:804.7 x 11.9m 2640' x 39'ft
Surface:Gravel
Runway 05 [A]Runway 23 [B]
Heading:029°TH 209°TH
Lat:
Lng:
2° 6' 45.31"S
44° 39' 10.33"W
2° 6' 22.69"S
44° 38' 57.67"W
User Notes and Comments
2° 6' 34" S / 44° 39' 4" W
Distance To
Airport ID:
Nearby Airports
(C) Guimaraes 2.4 NM
SNGM ENE 74°
4 Cururupu 24.9 NM
SNCU NW 323°
(U) CENTRO DE LANCAMENTO DE ALCANTARA 25.3 NM
SNCW SE 136°
(C) Pinheiro 40.4 NM
SNYE SW 230°
(U) CAVU - Clube de Aviacao Ultraleve 43.0 NM
SIPB ESE 122°
4 Sao Bento 43.2 NM
SNSB SSW 198°
(C) Marechal Cunha Machado 43.7 NM
SBSL ( WX ) SE 139°
VFR Chart
Flight Planning at SkyVector.com